Pagina principale
METAR-TAF:

METAR-TAF

Aeroporti :

Lamezia Terme, Italia

Aeroporto di Lamezia Terme

latitudine: 38-54N, longitudine: 016-15E, altezza: 15 m

Osservazione

Il bollettino è stato emesso 1 ora e 16 minuti fa, alle 10:50 UTC
Vento 7 kt da sud-ovest, variando fra sud/sud-ovest e ovest
Temperature 17°C
Umidità 72%
Pressione 1013 hPa
Visibilità 10 km o più
Nubi sparse ad un'altezza di 2000 ft

METAR: LICA 191050Z 23007KT 200V260 9999 SCT020 17/12 Q1013

Ora: 13:06 (12:06 UTC)

Previsione

Il bollettino è stato emesso 1 ora e 6 minuti fa, alle 11:00 UTC
Previsione valida dal 19 alle 12 UTC al 20 alle 12 UTC
Vento 14 kt da ovest
Visibilità 10 km o più
Nubi sparse ad un'altezza di 2000 ft
Temporaneamente
dal 19 alle 14 UTC al 19 alle 18 UTC
rovesci di pioggia
Evoluzione graduale
dal 19 alle 21 UTC al 19 alle 23 UTC
Vento 5 kt da direzioni variabili

TAF: LICA 191100Z 1912/2012 28014KT 9999 SCT020 TEMPO 1914/1918 SHRA BECMG 1921/1923 VRB05KT

Osservazioni e previsioni meteorologiche di più di 4000 aeroporti (messaggi METAR e TAF).

Le stazioni disponibili sono rappresentate dai dischi gialli e rossi sulla carta.

Puntare il mouse per vedere il nome della stazione.

Clicca sopra per visualizzare le osservazioni e previsioni meteorologiche.

Per cambiare la mappa : fare clic sui pulsanti verdi con una croce nera per ingrandire, il pulsante verde con un trattino per diminuire, o sulla freccia verde per le mappe adiacenti.


METAR-TAF: